sensor_id;sensor_type;location;lat;lon;timestamp;P1;durP1;ratioP1;P2;durP2;ratioP2
55218;SDS011;65463;43.864;20.136;2023-03-29T00:00:45;13.07;;;6.25;;
55218;SDS011;65463;43.864;20.136;2023-03-29T00:03:11;12.20;;;6.05;;
55218;SDS011;65463;43.864;20.136;2023-03-29T00:05:43;14.02;;;5.55;;
55218;SDS011;65463;43.864;20.136;2023-03-29T00:08:15;17.50;;;6.20;;
55218;SDS011;65463;43.864;20.136;2023-03-29T00:10:42;15.13;;;6.38;;
55218;SDS011;65463;43.864;20.136;2023-03-29T00:13:08;12.70;;;6.03;;
55218;SDS011;65463;43.864;20.136;2023-03-29T00:15:34;15.57;;;6.43;;
55218;SDS011;65463;43.864;20.136;2023-03-29T00:18:01;14.40;;;6.05;;
55218;SDS011;65463;43.864;20.136;2023-03-29T00:20:27;13.10;;;5.93;;
55218;SDS011;65463;43.864;20.136;2023-03-29T00:22:53;13.13;;;5.82;;
55218;SDS011;65463;43.864;20.136;2023-03-29T00:25:19;12.05;;;6.07;;
55218;SDS011;65463;43.864;20.136;2023-03-29T00:27:45;14.70;;;6.00;;
55218;SDS011;65463;43.864;20.136;2023-03-29T00:30:11;13.35;;;5.90;;
55218;SDS011;65463;43.864;20.136;2023-03-29T00:32:39;14.90;;;5.93;;
55218;SDS011;65463;43.864;20.136;2023-03-29T00:35:05;11.88;;;5.57;;
55218;SDS011;65463;43.864;20.136;2023-03-29T00:37:33;15.43;;;6.20;;
55218;SDS011;65463;43.864;20.136;2023-03-29T00:39:59;14.43;;;5.95;;
55218;SDS011;65463;43.864;20.136;2023-03-29T00:42:25;17.95;;;6.05;;
55218;SDS011;65463;43.864;20.136;2023-03-29T00:45:02;20.30;;;6.30;;
55218;SDS011;65463;43.864;20.136;2023-03-29T00:50:08;16.65;;;6.38;;
55218;SDS011;65463;43.864;20.136;2023-03-29T00:52:36;17.08;;;5.90;;
55218;SDS011;65463;43.864;20.136;2023-03-29T00:55:05;15.50;;;6.40;;
55218;SDS011;65463;43.864;20.136;2023-03-29T00:57:34;16.42;;;6.30;;
55218;SDS011;65463;43.864;20.136;2023-03-29T01:00:01;17.70;;;5.85;;
55218;SDS011;65463;43.864;20.136;2023-03-29T01:02:29;13.77;;;5.40;;
55218;SDS011;65463;43.864;20.136;2023-03-29T01:05:00;19.00;;;6.45;;
55218;SDS011;65463;43.864;20.136;2023-03-29T01:12:34;18.48;;;6.65;;
55218;SDS011;65463;43.864;20.136;2023-03-29T01:15:04;26.70;;;7.07;;
55218;SDS011;65463;43.864;20.136;2023-03-29T01:17:31;20.05;;;7.10;;
55218;SDS011;65463;43.864;20.136;2023-03-29T01:19:59;15.48;;;6.10;;
55218;SDS011;65463;43.864;20.136;2023-03-29T01:27:58;25.27;;;7.28;;
55218;SDS011;65463;43.864;20.136;2023-03-29T01:33:04;19.17;;;6.88;;
55218;SDS011;65463;43.864;20.136;2023-03-29T01:35:44;19.35;;;6.63;;
55218;SDS011;65463;43.864;20.136;2023-03-29T01:38:14;11.57;;;5.18;;
55218;SDS011;65463;43.864;20.136;2023-03-29T01:40:40;12.15;;;5.05;;
55218;SDS011;65463;43.864;20.136;2023-03-29T01:43:23;9.98;;;4.30;;
55218;SDS011;65463;43.864;20.136;2023-03-29T01:46:06;14.95;;;5.03;;
55218;SDS011;65463;43.864;20.136;2023-03-29T01:53:55;8.98;;;4.03;;
55218;SDS011;65463;43.864;20.136;2023-03-29T01:56:25;8.60;;;3.95;;
55218;SDS011;65463;43.864;20.136;2023-03-29T01:58:53;8.32;;;3.70;;
55218;SDS011;65463;43.864;20.136;2023-03-29T02:01:23;8.23;;;3.80;;
55218;SDS011;65463;43.864;20.136;2023-03-29T02:03:56;8.05;;;3.83;;
55218;SDS011;65463;43.864;20.136;2023-03-29T02:08:51;8.07;;;3.55;;
55218;SDS011;65463;43.864;20.136;2023-03-29T02:11:20;7.65;;;3.63;;
55218;SDS011;65463;43.864;20.136;2023-03-29T02:13:48;6.75;;;3.15;;
55218;SDS011;65463;43.864;20.136;2023-03-29T02:16:14;5.85;;;2.53;;
55218;SDS011;65463;43.864;20.136;2023-03-29T02:18:42;5.13;;;2.70;;
55218;SDS011;65463;43.864;20.136;2023-03-29T02:21:09;6.82;;;3.00;;
55218;SDS011;65463;43.864;20.136;2023-03-29T02:23:42;6.00;;;2.83;;
55218;SDS011;65463;43.864;20.136;2023-03-29T02:26:10;9.48;;;3.38;;
55218;SDS011;65463;43.864;20.136;2023-03-29T02:28:38;6.93;;;2.97;;
55218;SDS011;65463;43.864;20.136;2023-03-29T02:36:26;7.63;;;2.88;;
55218;SDS011;65463;43.864;20.136;2023-03-29T02:39:17;10.30;;;2.60;;
55218;SDS011;65463;43.864;20.136;2023-03-29T02:41:45;7.85;;;2.72;;
55218;SDS011;65463;43.864;20.136;2023-03-29T02:44:15;7.20;;;3.10;;
55218;SDS011;65463;43.864;20.136;2023-03-29T02:46:46;5.97;;;2.85;;
55218;SDS011;65463;43.864;20.136;2023-03-29T02:49:25;7.35;;;3.30;;
55218;SDS011;65463;43.864;20.136;2023-03-29T02:51:53;7.20;;;2.72;;
55218;SDS011;65463;43.864;20.136;2023-03-29T02:54:22;6.07;;;3.00;;
55218;SDS011;65463;43.864;20.136;2023-03-29T02:56:56;7.68;;;3.33;;
55218;SDS011;65463;43.864;20.136;2023-03-29T03:01:53;6.63;;;2.67;;
55218;SDS011;65463;43.864;20.136;2023-03-29T03:04:20;8.60;;;2.63;;
55218;SDS011;65463;43.864;20.136;2023-03-29T03:06:46;6.15;;;2.70;;
55218;SDS011;65463;43.864;20.136;2023-03-29T03:09:13;6.00;;;2.88;;
55218;SDS011;65463;43.864;20.136;2023-03-29T03:11:39;5.00;;;2.60;;
55218;SDS011;65463;43.864;20.136;2023-03-29T03:14:06;6.93;;;2.80;;
55218;SDS011;65463;43.864;20.136;2023-03-29T03:16:32;6.85;;;2.70;;
55218;SDS011;65463;43.864;20.136;2023-03-29T03:18:59;5.57;;;2.70;;
55218;SDS011;65463;43.864;20.136;2023-03-29T03:21:26;5.85;;;2.50;;
55218;SDS011;65463;43.864;20.136;2023-03-29T03:23:52;7.53;;;2.50;;
55218;SDS011;65463;43.864;20.136;2023-03-29T03:26:18;6.43;;;2.20;;
55218;SDS011;65463;43.864;20.136;2023-03-29T03:28:45;5.00;;;2.25;;
55218;SDS011;65463;43.864;20.136;2023-03-29T03:31:11;5.30;;;2.03;;
55218;SDS011;65463;43.864;20.136;2023-03-29T03:33:38;6.78;;;2.28;;
55218;SDS011;65463;43.864;20.136;2023-03-29T03:36:06;5.10;;;2.60;;
55218;SDS011;65463;43.864;20.136;2023-03-29T03:38:32;4.70;;;2.40;;
55218;SDS011;65463;43.864;20.136;2023-03-29T03:40:59;5.07;;;2.40;;
55218;SDS011;65463;43.864;20.136;2023-03-29T03:43:25;6.45;;;2.50;;
55218;SDS011;65463;43.864;20.136;2023-03-29T03:45:53;4.90;;;2.10;;
55218;SDS011;65463;43.864;20.136;2023-03-29T03:48:19;5.82;;;2.05;;
55218;SDS011;65463;43.864;20.136;2023-03-29T03:50:47;4.70;;;1.80;;
55218;SDS011;65463;43.864;20.136;2023-03-29T03:53:13;6.60;;;1.90;;
55218;SDS011;65463;43.864;20.136;2023-03-29T03:55:40;5.95;;;2.10;;
55218;SDS011;65463;43.864;20.136;2023-03-29T03:58:06;4.60;;;2.17;;
55218;SDS011;65463;43.864;20.136;2023-03-29T04:00:33;5.07;;;2.40;;
55218;SDS011;65463;43.864;20.136;2023-03-29T04:02:59;7.63;;;2.10;;
55218;SDS011;65463;43.864;20.136;2023-03-29T04:05:26;7.32;;;2.40;;
55218;SDS011;65463;43.864;20.136;2023-03-29T04:07:52;3.88;;;1.92;;
55218;SDS011;65463;43.864;20.136;2023-03-29T04:10:20;4.68;;;2.05;;
55218;SDS011;65463;43.864;20.136;2023-03-29T04:12:46;5.75;;;2.40;;
55218;SDS011;65463;43.864;20.136;2023-03-29T04:15:12;5.20;;;2.30;;
55218;SDS011;65463;43.864;20.136;2023-03-29T04:17:39;6.57;;;2.15;;
55218;SDS011;65463;43.864;20.136;2023-03-29T04:20:05;6.53;;;2.25;;
55218;SDS011;65463;43.864;20.136;2023-03-29T04:22:36;5.30;;;2.75;;
55218;SDS011;65463;43.864;20.136;2023-03-29T04:25:02;4.93;;;2.40;;
55218;SDS011;65463;43.864;20.136;2023-03-29T04:27:29;8.55;;;2.40;;
55218;SDS011;65463;43.864;20.136;2023-03-29T04:29:55;4.80;;;2.30;;
55218;SDS011;65463;43.864;20.136;2023-03-29T04:32:21;5.70;;;2.40;;
55218;SDS011;65463;43.864;20.136;2023-03-29T04:34:48;6.63;;;2.45;;
55218;SDS011;65463;43.864;20.136;2023-03-29T04:37:15;8.45;;;2.30;;
55218;SDS011;65463;43.864;20.136;2023-03-29T04:39:46;6.15;;;2.60;;
55218;SDS011;65463;43.864;20.136;2023-03-29T04:42:13;5.72;;;2.78;;
55218;SDS011;65463;43.864;20.136;2023-03-29T04:44:39;7.50;;;3.03;;
55218;SDS011;65463;43.864;20.136;2023-03-29T04:47:07;6.22;;;2.70;;
55218;SDS011;65463;43.864;20.136;2023-03-29T04:49:36;8.45;;;3.05;;
55218;SDS011;65463;43.864;20.136;2023-03-29T04:52:02;5.03;;;2.78;;
55218;SDS011;65463;43.864;20.136;2023-03-29T04:54:28;10.85;;;2.95;;
55218;SDS011;65463;43.864;20.136;2023-03-29T04:56:54;10.18;;;2.70;;
55218;SDS011;65463;43.864;20.136;2023-03-29T04:59:21;6.40;;;2.92;;
55218;SDS011;65463;43.864;20.136;2023-03-29T05:01:47;5.10;;;2.47;;
55218;SDS011;65463;43.864;20.136;2023-03-29T05:04:13;10.25;;;2.85;;
55218;SDS011;65463;43.864;20.136;2023-03-29T05:06:39;7.03;;;2.63;;
55218;SDS011;65463;43.864;20.136;2023-03-29T05:09:06;7.72;;;3.50;;
55218;SDS011;65463;43.864;20.136;2023-03-29T05:11:33;8.85;;;3.15;;
55218;SDS011;65463;43.864;20.136;2023-03-29T05:13:59;11.10;;;3.55;;
55218;SDS011;65463;43.864;20.136;2023-03-29T05:16:27;9.68;;;4.07;;
55218;SDS011;65463;43.864;20.136;2023-03-29T05:18:54;10.20;;;4.50;;
55218;SDS011;65463;43.864;20.136;2023-03-29T05:21:21;9.68;;;4.20;;
55218;SDS011;65463;43.864;20.136;2023-03-29T05:23:48;11.65;;;4.32;;
55218;SDS011;65463;43.864;20.136;2023-03-29T05:26:22;10.20;;;4.47;;
55218;SDS011;65463;43.864;20.136;2023-03-29T05:28:51;11.90;;;4.63;;
55218;SDS011;65463;43.864;20.136;2023-03-29T05:31:18;13.25;;;4.70;;
55218;SDS011;65463;43.864;20.136;2023-03-29T05:33:47;12.50;;;4.75;;
55218;SDS011;65463;43.864;20.136;2023-03-29T05:36:15;12.93;;;5.30;;
55218;SDS011;65463;43.864;20.136;2023-03-29T05:38:43;11.55;;;4.97;;
55218;SDS011;65463;43.864;20.136;2023-03-29T05:41:10;17.05;;;6.32;;
55218;SDS011;65463;43.864;20.136;2023-03-29T05:43:37;14.20;;;6.60;;
55218;SDS011;65463;43.864;20.136;2023-03-29T05:46:03;17.70;;;7.10;;
55218;SDS011;65463;43.864;20.136;2023-03-29T05:48:30;16.80;;;7.30;;
55218;SDS011;65463;43.864;20.136;2023-03-29T05:50:56;13.55;;;5.90;;
55218;SDS011;65463;43.864;20.136;2023-03-29T05:53:23;11.00;;;5.25;;
55218;SDS011;65463;43.864;20.136;2023-03-29T05:55:52;9.23;;;4.07;;
55218;SDS011;65463;43.864;20.136;2023-03-29T05:58:19;27.48;;;13.13;;
55218;SDS011;65463;43.864;20.136;2023-03-29T06:00:46;10.63;;;3.65;;
55218;SDS011;65463;43.864;20.136;2023-03-29T06:03:17;8.25;;;3.25;;
55218;SDS011;65463;43.864;20.136;2023-03-29T06:08:11;12.32;;;5.28;;
55218;SDS011;65463;43.864;20.136;2023-03-29T06:10:37;12.95;;;3.85;;
55218;SDS011;65463;43.864;20.136;2023-03-29T06:13:06;13.95;;;5.13;;
55218;SDS011;65463;43.864;20.136;2023-03-29T06:15:32;9.73;;;4.38;;
55218;SDS011;65463;43.864;20.136;2023-03-29T06:18:02;14.13;;;4.95;;
55218;SDS011;65463;43.864;20.136;2023-03-29T06:20:30;13.65;;;6.25;;
55218;SDS011;65463;43.864;20.136;2023-03-29T06:22:59;13.20;;;6.10;;
55218;SDS011;65463;43.864;20.136;2023-03-29T06:25:25;10.88;;;4.75;;
55218;SDS011;65463;43.864;20.136;2023-03-29T06:27:51;12.15;;;4.82;;
55218;SDS011;65463;43.864;20.136;2023-03-29T06:30:18;14.23;;;5.93;;
55218;SDS011;65463;43.864;20.136;2023-03-29T06:32:44;15.27;;;5.63;;
55218;SDS011;65463;43.864;20.136;2023-03-29T06:35:13;9.95;;;4.95;;
55218;SDS011;65463;43.864;20.136;2023-03-29T06:37:40;10.48;;;5.18;;
55218;SDS011;65463;43.864;20.136;2023-03-29T06:40:14;12.07;;;5.70;;
55218;SDS011;65463;43.864;20.136;2023-03-29T06:42:46;10.82;;;4.60;;
55218;SDS011;65463;43.864;20.136;2023-03-29T06:45:13;10.93;;;4.85;;
55218;SDS011;65463;43.864;20.136;2023-03-29T06:47:40;9.60;;;4.40;;
55218;SDS011;65463;43.864;20.136;2023-03-29T06:50:06;9.68;;;3.90;;
55218;SDS011;65463;43.864;20.136;2023-03-29T06:52:33;8.30;;;3.95;;
55218;SDS011;65463;43.864;20.136;2023-03-29T06:54:59;6.80;;;2.80;;
55218;SDS011;65463;43.864;20.136;2023-03-29T06:57:26;6.00;;;2.60;;
55218;SDS011;65463;43.864;20.136;2023-03-29T06:59:52;11.60;;;4.18;;
55218;SDS011;65463;43.864;20.136;2023-03-29T07:02:18;5.00;;;2.28;;
55218;SDS011;65463;43.864;20.136;2023-03-29T07:04:45;4.43;;;2.10;;
55218;SDS011;65463;43.864;20.136;2023-03-29T07:07:12;5.47;;;2.00;;
55218;SDS011;65463;43.864;20.136;2023-03-29T07:09:44;5.18;;;1.73;;
55218;SDS011;65463;43.864;20.136;2023-03-29T07:12:18;10.88;;;2.03;;
55218;SDS011;65463;43.864;20.136;2023-03-29T07:14:45;4.30;;;1.95;;
55218;SDS011;65463;43.864;20.136;2023-03-29T07:17:11;7.45;;;1.85;;
55218;SDS011;65463;43.864;20.136;2023-03-29T07:19:37;2.85;;;1.40;;
55218;SDS011;65463;43.864;20.136;2023-03-29T07:22:04;3.28;;;1.52;;
55218;SDS011;65463;43.864;20.136;2023-03-29T07:24:30;3.33;;;1.40;;
55218;SDS011;65463;43.864;20.136;2023-03-29T07:26:56;2.78;;;1.33;;
55218;SDS011;65463;43.864;20.136;2023-03-29T07:29:23;3.50;;;1.40;;
55218;SDS011;65463;43.864;20.136;2023-03-29T07:31:50;2.70;;;1.30;;
55218;SDS011;65463;43.864;20.136;2023-03-29T07:34:16;3.10;;;1.17;;
55218;SDS011;65463;43.864;20.136;2023-03-29T07:36:42;6.05;;;1.33;;
55218;SDS011;65463;43.864;20.136;2023-03-29T07:39:09;4.30;;;1.30;;
55218;SDS011;65463;43.864;20.136;2023-03-29T07:41:37;3.15;;;1.10;;
55218;SDS011;65463;43.864;20.136;2023-03-29T07:44:03;3.47;;;1.25;;
55218;SDS011;65463;43.864;20.136;2023-03-29T07:46:38;3.45;;;1.02;;
55218;SDS011;65463;43.864;20.136;2023-03-29T07:49:04;5.85;;;1.27;;
55218;SDS011;65463;43.864;20.136;2023-03-29T07:51:32;2.03;;;1.10;;
55218;SDS011;65463;43.864;20.136;2023-03-29T07:54:00;2.83;;;1.30;;
55218;SDS011;65463;43.864;20.136;2023-03-29T07:56:27;3.22;;;1.15;;
55218;SDS011;65463;43.864;20.136;2023-03-29T07:58:53;2.13;;;1.13;;
55218;SDS011;65463;43.864;20.136;2023-03-29T08:01:19;3.25;;;1.50;;
55218;SDS011;65463;43.864;20.136;2023-03-29T08:03:45;3.30;;;1.30;;
55218;SDS011;65463;43.864;20.136;2023-03-29T08:06:12;6.65;;;1.38;;
55218;SDS011;65463;43.864;20.136;2023-03-29T08:08:40;5.13;;;1.40;;
55218;SDS011;65463;43.864;20.136;2023-03-29T08:11:09;4.75;;;1.50;;
55218;SDS011;65463;43.864;20.136;2023-03-29T08:13:35;3.60;;;1.30;;
55218;SDS011;65463;43.864;20.136;2023-03-29T08:16:01;3.47;;;1.60;;
55218;SDS011;65463;43.864;20.136;2023-03-29T08:18:28;3.13;;;1.30;;
55218;SDS011;65463;43.864;20.136;2023-03-29T08:20:55;3.22;;;1.50;;
55218;SDS011;65463;43.864;20.136;2023-03-29T08:23:20;5.70;;;2.00;;
55218;SDS011;65463;43.864;20.136;2023-03-29T08:25:47;2.45;;;1.38;;
55218;SDS011;65463;43.864;20.136;2023-03-29T08:28:13;3.85;;;1.67;;
55218;SDS011;65463;43.864;20.136;2023-03-29T08:30:39;6.93;;;1.40;;
55218;SDS011;65463;43.864;20.136;2023-03-29T08:33:05;3.00;;;1.23;;
55218;SDS011;65463;43.864;20.136;2023-03-29T08:35:31;3.45;;;1.52;;
55218;SDS011;65463;43.864;20.136;2023-03-29T08:37:57;2.33;;;1.25;;
55218;SDS011;65463;43.864;20.136;2023-03-29T08:40:24;3.70;;;1.20;;
55218;SDS011;65463;43.864;20.136;2023-03-29T08:45:24;4.47;;;1.55;;
55218;SDS011;65463;43.864;20.136;2023-03-29T08:50:39;5.35;;;1.40;;
55218;SDS011;65463;43.864;20.136;2023-03-29T08:55:41;2.88;;;1.17;;
55218;SDS011;65463;43.864;20.136;2023-03-29T08:58:14;4.47;;;1.27;;
55218;SDS011;65463;43.864;20.136;2023-03-29T09:00:43;2.20;;;1.25;;
55218;SDS011;65463;43.864;20.136;2023-03-29T09:03:14;3.03;;;1.30;;
55218;SDS011;65463;43.864;20.136;2023-03-29T09:05:45;3.08;;;1.30;;
55218;SDS011;65463;43.864;20.136;2023-03-29T09:08:12;3.25;;;0.95;;
55218;SDS011;65463;43.864;20.136;2023-03-29T09:14:05;2.72;;;1.17;;
55218;SDS011;65463;43.864;20.136;2023-03-29T09:16:15;4.88;;;1.10;;
55218;SDS011;65463;43.864;20.136;2023-03-29T09:18:48;4.40;;;1.25;;
55218;SDS011;65463;43.864;20.136;2023-03-29T09:26:21;2.95;;;1.40;;
55218;SDS011;65463;43.864;20.136;2023-03-29T09:29:07;2.78;;;1.15;;
55218;SDS011;65463;43.864;20.136;2023-03-29T09:31:38;3.58;;;1.33;;
55218;SDS011;65463;43.864;20.136;2023-03-29T09:34:14;4.55;;;1.42;;
55218;SDS011;65463;43.864;20.136;2023-03-29T09:39:16;2.90;;;1.10;;
55218;SDS011;65463;43.864;20.136;2023-03-29T09:42:03;2.60;;;1.38;;
55218;SDS011;65463;43.864;20.136;2023-03-29T09:44:34;5.03;;;1.15;;
55218;SDS011;65463;43.864;20.136;2023-03-29T09:47:05;2.42;;;0.85;;
55218;SDS011;65463;43.864;20.136;2023-03-29T09:49:33;2.22;;;0.70;;
55218;SDS011;65463;43.864;20.136;2023-03-29T09:52:03;1.63;;;0.80;;
55218;SDS011;65463;43.864;20.136;2023-03-29T09:56:57;1.70;;;0.90;;
55218;SDS011;65463;43.864;20.136;2023-03-29T09:59:23;2.42;;;0.93;;
55218;SDS011;65463;43.864;20.136;2023-03-29T10:01:50;2.88;;;1.00;;
55218;SDS011;65463;43.864;20.136;2023-03-29T10:04:17;3.00;;;1.20;;
55218;SDS011;65463;43.864;20.136;2023-03-29T10:06:46;3.35;;;1.10;;
55218;SDS011;65463;43.864;20.136;2023-03-29T10:09:19;3.35;;;1.30;;
55218;SDS011;65463;43.864;20.136;2023-03-29T10:11:50;3.17;;;0.90;;
55218;SDS011;65463;43.864;20.136;2023-03-29T10:16:56;2.65;;;1.02;;
55218;SDS011;65463;43.864;20.136;2023-03-29T10:19:25;4.40;;;0.90;;
55218;SDS011;65463;43.864;20.136;2023-03-29T10:21:52;2.80;;;1.00;;
55218;SDS011;65463;43.864;20.136;2023-03-29T10:24:26;2.00;;;0.77;;
55218;SDS011;65463;43.864;20.136;2023-03-29T10:27:02;2.45;;;0.77;;
55218;SDS011;65463;43.864;20.136;2023-03-29T10:29:36;2.33;;;0.90;;
55218;SDS011;65463;43.864;20.136;2023-03-29T10:32:50;2.50;;;0.75;;
55218;SDS011;65463;43.864;20.136;2023-03-29T10:34:50;2.55;;;0.93;;
55218;SDS011;65463;43.864;20.136;2023-03-29T10:37:17;10.70;;;5.28;;
55218;SDS011;65463;43.864;20.136;2023-03-29T10:39:45;47.72;;;21.08;;
55218;SDS011;65463;43.864;20.136;2023-03-29T10:42:13;7.05;;;3.72;;
55218;SDS011;65463;43.864;20.136;2023-03-29T10:44:54;2.88;;;0.80;;
55218;SDS011;65463;43.864;20.136;2023-03-29T10:47:20;2.45;;;0.90;;
55218;SDS011;65463;43.864;20.136;2023-03-29T10:49:53;1.92;;;0.80;;
55218;SDS011;65463;43.864;20.136;2023-03-29T10:52:20;1.65;;;0.70;;
55218;SDS011;65463;43.864;20.136;2023-03-29T10:54:48;2.03;;;0.90;;
55218;SDS011;65463;43.864;20.136;2023-03-29T10:57:18;1.58;;;0.63;;
55218;SDS011;65463;43.864;20.136;2023-03-29T11:05:33;2.17;;;0.77;;
55218;SDS011;65463;43.864;20.136;2023-03-29T11:08:11;2.75;;;0.90;;
55218;SDS011;65463;43.864;20.136;2023-03-29T11:11:00;1.92;;;0.82;;
55218;SDS011;65463;43.864;20.136;2023-03-29T11:16:19;4.45;;;0.98;;
55218;SDS011;65463;43.864;20.136;2023-03-29T11:18:51;2.25;;;0.90;;
55218;SDS011;65463;43.864;20.136;2023-03-29T11:23:48;1.25;;;0.80;;
55218;SDS011;65463;43.864;20.136;2023-03-29T11:26:21;1.83;;;0.90;;
55218;SDS011;65463;43.864;20.136;2023-03-29T11:28:54;5.70;;;0.83;;
55218;SDS011;65463;43.864;20.136;2023-03-29T11:36:40;2.35;;;0.80;;
55218;SDS011;65463;43.864;20.136;2023-03-29T11:39:15;2.90;;;0.80;;
55218;SDS011;65463;43.864;20.136;2023-03-29T11:41:45;2.25;;;1.10;;
55218;SDS011;65463;43.864;20.136;2023-03-29T11:44:46;2.22;;;0.93;;
55218;SDS011;65463;43.864;20.136;2023-03-29T11:47:12;2.58;;;0.90;;
55218;SDS011;65463;43.864;20.136;2023-03-29T11:49:41;2.33;;;0.90;;
55218;SDS011;65463;43.864;20.136;2023-03-29T11:52:13;3.50;;;1.00;;
55218;SDS011;65463;43.864;20.136;2023-03-29T11:54:42;2.75;;;0.90;;
55218;SDS011;65463;43.864;20.136;2023-03-29T12:02:38;2.55;;;0.90;;
55218;SDS011;65463;43.864;20.136;2023-03-29T12:05:09;2.15;;;1.02;;
55218;SDS011;65463;43.864;20.136;2023-03-29T12:07:44;2.97;;;1.20;;
55218;SDS011;65463;43.864;20.136;2023-03-29T12:10:20;2.13;;;0.98;;
55218;SDS011;65463;43.864;20.136;2023-03-29T12:13:01;1.77;;;1.13;;
55218;SDS011;65463;43.864;20.136;2023-03-29T12:15:30;1.40;;;0.98;;
55218;SDS011;65463;43.864;20.136;2023-03-29T12:20:42;1.98;;;0.90;;
55218;SDS011;65463;43.864;20.136;2023-03-29T12:23:12;1.98;;;1.15;;
55218;SDS011;65463;43.864;20.136;2023-03-29T12:28:28;3.40;;;1.33;;
55218;SDS011;65463;43.864;20.136;2023-03-29T12:36:12;3.08;;;1.20;;
55218;SDS011;65463;43.864;20.136;2023-03-29T12:38:40;2.00;;;1.08;;
55218;SDS011;65463;43.864;20.136;2023-03-29T12:43:39;2.65;;;1.05;;
55218;SDS011;65463;43.864;20.136;2023-03-29T12:46:30;2.60;;;1.35;;
55218;SDS011;65463;43.864;20.136;2023-03-29T12:48:54;2.42;;;0.90;;
55218;SDS011;65463;43.864;20.136;2023-03-29T12:51:26;2.25;;;0.90;;
55218;SDS011;65463;43.864;20.136;2023-03-29T12:53:54;4.13;;;1.02;;
55218;SDS011;65463;43.864;20.136;2023-03-29T12:56:39;2.72;;;0.90;;
55218;SDS011;65463;43.864;20.136;2023-03-29T13:01:36;3.33;;;1.20;;
55218;SDS011;65463;43.864;20.136;2023-03-29T13:04:11;4.30;;;1.00;;
55218;SDS011;65463;43.864;20.136;2023-03-29T13:09:31;2.67;;;0.93;;
55218;SDS011;65463;43.864;20.136;2023-03-29T13:12:10;2.15;;;0.90;;
55218;SDS011;65463;43.864;20.136;2023-03-29T13:14:43;1.55;;;0.90;;
55218;SDS011;65463;43.864;20.136;2023-03-29T13:17:19;6.40;;;1.10;;
55218;SDS011;65463;43.864;20.136;2023-03-29T13:25:08;2.05;;;1.02;;
55218;SDS011;65463;43.864;20.136;2023-03-29T13:32:54;3.05;;;0.80;;
55218;SDS011;65463;43.864;20.136;2023-03-29T13:35:38;2.85;;;0.90;;
55218;SDS011;65463;43.864;20.136;2023-03-29T13:38:20;3.05;;;0.80;;
55218;SDS011;65463;43.864;20.136;2023-03-29T13:41:02;2.42;;;0.90;;
55218;SDS011;65463;43.864;20.136;2023-03-29T13:43:33;2.78;;;0.90;;
55218;SDS011;65463;43.864;20.136;2023-03-29T13:51:01;2.38;;;0.82;;
55218;SDS011;65463;43.864;20.136;2023-03-29T13:56:01;1.87;;;0.80;;
55218;SDS011;65463;43.864;20.136;2023-03-29T14:03:34;4.43;;;1.02;;
55218;SDS011;65463;43.864;20.136;2023-03-29T14:06:04;1.55;;;0.77;;
55218;SDS011;65463;43.864;20.136;2023-03-29T14:08:38;2.75;;;0.80;;
55218;SDS011;65463;43.864;20.136;2023-03-29T14:11:05;1.70;;;0.80;;
55218;SDS011;65463;43.864;20.136;2023-03-29T14:13:32;1.88;;;0.77;;
55218;SDS011;65463;43.864;20.136;2023-03-29T14:16:02;2.97;;;1.02;;
55218;SDS011;65463;43.864;20.136;2023-03-29T14:18:35;2.58;;;0.90;;
55218;SDS011;65463;43.864;20.136;2023-03-29T14:21:02;2.08;;;0.95;;
55218;SDS011;65463;43.864;20.136;2023-03-29T14:23:29;1.70;;;0.80;;
55218;SDS011;65463;43.864;20.136;2023-03-29T14:26:04;1.98;;;0.80;;
55218;SDS011;65463;43.864;20.136;2023-03-29T14:28:31;2.45;;;0.80;;
55218;SDS011;65463;43.864;20.136;2023-03-29T14:30:57;2.00;;;0.80;;
55218;SDS011;65463;43.864;20.136;2023-03-29T14:35:51;2.13;;;1.00;;
55218;SDS011;65463;43.864;20.136;2023-03-29T14:38:17;4.60;;;0.73;;
55218;SDS011;65463;43.864;20.136;2023-03-29T14:40:44;3.05;;;0.88;;
55218;SDS011;65463;43.864;20.136;2023-03-29T14:43:10;1.58;;;1.00;;
55218;SDS011;65463;43.864;20.136;2023-03-29T14:45:38;1.65;;;0.90;;
55218;SDS011;65463;43.864;20.136;2023-03-29T14:48:04;2.58;;;0.90;;
55218;SDS011;65463;43.864;20.136;2023-03-29T14:50:30;2.58;;;1.02;;
55218;SDS011;65463;43.864;20.136;2023-03-29T14:52:57;2.00;;;0.80;;
55218;SDS011;65463;43.864;20.136;2023-03-29T14:55:24;1.33;;;0.63;;
55218;SDS011;65463;43.864;20.136;2023-03-29T14:57:54;4.10;;;0.95;;
55218;SDS011;65463;43.864;20.136;2023-03-29T15:02:55;2.85;;;0.90;;
55218;SDS011;65463;43.864;20.136;2023-03-29T15:05:23;2.50;;;1.08;;
55218;SDS011;65463;43.864;20.136;2023-03-29T15:07:50;1.50;;;0.90;;
55218;SDS011;65463;43.864;20.136;2023-03-29T15:10:20;2.95;;;1.23;;
55218;SDS011;65463;43.864;20.136;2023-03-29T15:12:47;2.10;;;0.90;;
55218;SDS011;65463;43.864;20.136;2023-03-29T15:15:13;2.40;;;0.85;;
55218;SDS011;65463;43.864;20.136;2023-03-29T15:17:40;4.97;;;0.95;;
55218;SDS011;65463;43.864;20.136;2023-03-29T15:22:55;5.00;;;1.90;;
55218;SDS011;65463;43.864;20.136;2023-03-29T15:25:21;3.47;;;1.42;;
55218;SDS011;65463;43.864;20.136;2023-03-29T15:27:49;1.98;;;0.90;;
55218;SDS011;65463;43.864;20.136;2023-03-29T15:30:16;2.25;;;0.90;;
55218;SDS011;65463;43.864;20.136;2023-03-29T15:32:42;2.95;;;1.20;;
55218;SDS011;65463;43.864;20.136;2023-03-29T15:35:22;3.40;;;1.20;;
55218;SDS011;65463;43.864;20.136;2023-03-29T15:37:49;2.83;;;0.90;;
55218;SDS011;65463;43.864;20.136;2023-03-29T15:40:16;2.63;;;1.40;;
55218;SDS011;65463;43.864;20.136;2023-03-29T15:42:44;3.40;;;1.48;;
55218;SDS011;65463;43.864;20.136;2023-03-29T15:45:16;2.85;;;1.20;;
55218;SDS011;65463;43.864;20.136;2023-03-29T15:47:43;3.40;;;1.10;;
55218;SDS011;65463;43.864;20.136;2023-03-29T15:50:10;3.45;;;1.10;;
55218;SDS011;65463;43.864;20.136;2023-03-29T15:52:37;4.00;;;1.13;;
55218;SDS011;65463;43.864;20.136;2023-03-29T15:55:09;5.78;;;1.25;;
55218;SDS011;65463;43.864;20.136;2023-03-29T15:57:35;3.95;;;1.30;;
55218;SDS011;65463;43.864;20.136;2023-03-29T16:00:02;4.10;;;1.20;;
55218;SDS011;65463;43.864;20.136;2023-03-29T16:02:31;4.28;;;1.60;;
55218;SDS011;65463;43.864;20.136;2023-03-29T16:04:57;3.13;;;1.50;;
55218;SDS011;65463;43.864;20.136;2023-03-29T16:07:27;5.30;;;2.00;;
55218;SDS011;65463;43.864;20.136;2023-03-29T16:09:56;5.47;;;3.08;;
55218;SDS011;65463;43.864;20.136;2023-03-29T16:12:22;3.45;;;1.80;;
55218;SDS011;65463;43.864;20.136;2023-03-29T16:14:48;4.47;;;2.03;;
55218;SDS011;65463;43.864;20.136;2023-03-29T16:17:15;4.78;;;1.63;;
55218;SDS011;65463;43.864;20.136;2023-03-29T16:19:41;4.28;;;1.90;;
55218;SDS011;65463;43.864;20.136;2023-03-29T16:22:07;3.63;;;1.77;;
55218;SDS011;65463;43.864;20.136;2023-03-29T16:24:34;5.57;;;1.80;;
55218;SDS011;65463;43.864;20.136;2023-03-29T16:27:00;3.60;;;1.40;;
55218;SDS011;65463;43.864;20.136;2023-03-29T16:29:27;2.53;;;1.20;;
55218;SDS011;65463;43.864;20.136;2023-03-29T16:31:53;3.47;;;1.38;;
55218;SDS011;65463;43.864;20.136;2023-03-29T16:34:20;3.35;;;1.63;;
55218;SDS011;65463;43.864;20.136;2023-03-29T16:36:48;4.43;;;1.52;;
55218;SDS011;65463;43.864;20.136;2023-03-29T16:39:14;8.05;;;3.28;;
55218;SDS011;65463;43.864;20.136;2023-03-29T16:41:42;4.57;;;2.40;;
55218;SDS011;65463;43.864;20.136;2023-03-29T16:44:18;5.05;;;2.20;;
55218;SDS011;65463;43.864;20.136;2023-03-29T16:46:46;4.88;;;1.98;;
55218;SDS011;65463;43.864;20.136;2023-03-29T16:49:13;5.60;;;1.90;;